createdAt,value
2024-02-20T00:01:42.985Z,26.2
2024-02-20T00:06:45.508Z,26.3
2024-02-20T00:11:47.982Z,26.4
2024-02-20T00:16:50.383Z,26.6
2024-02-20T00:21:52.820Z,26.7
2024-02-20T00:26:55.279Z,26.7
2024-02-20T00:31:57.687Z,26.9
2024-02-20T00:37:00.188Z,27
2024-02-20T00:42:02.710Z,27.1
2024-02-20T00:47:05.129Z,27.2
2024-02-20T00:52:07.589Z,27.3
2024-02-20T00:57:10.300Z,27.4
2024-02-20T01:02:13.205Z,27.5
2024-02-20T01:07:15.869Z,27.5
2024-02-20T01:12:18.302Z,27.5
2024-02-20T01:17:20.714Z,27.6
2024-02-20T01:22:23.209Z,27.7
2024-02-20T01:27:25.733Z,27.7
2024-02-20T01:32:28.171Z,27.7
2024-02-20T01:37:30.821Z,27.7
2024-02-20T01:42:33.523Z,27.7
2024-02-20T01:47:35.956Z,27.7
2024-02-20T01:52:38.412Z,27.8
2024-02-20T01:57:40.862Z,27.8
2024-02-20T02:02:43.268Z,27.8
2024-02-20T02:07:45.724Z,27.9
2024-02-20T02:12:48.188Z,28.1
2024-02-20T02:17:50.648Z,28.2
2024-02-20T02:22:53.148Z,28.3
2024-02-20T02:27:55.620Z,28.3
2024-02-20T02:32:58.061Z,28.2
2024-02-20T02:38:00.490Z,28
2024-02-20T02:43:02.935Z,27.9
2024-02-20T02:48:05.392Z,27.9
2024-02-20T02:53:07.844Z,28
2024-02-20T02:58:10.296Z,28.1
2024-02-20T03:03:12.749Z,28.3
2024-02-20T03:08:15.188Z,28.7
2024-02-20T03:13:17.646Z,28.8
2024-02-20T03:18:20.064Z,28.8
2024-02-20T03:23:22.520Z,28.8
2024-02-20T03:28:24.988Z,28.7
2024-02-20T03:33:27.536Z,28.5
2024-02-20T03:38:30.298Z,28.4
2024-02-20T03:43:32.755Z,28.2
2024-02-20T03:48:35.256Z,28.1
2024-02-20T03:53:37.830Z,27.9
2024-02-20T03:58:40.342Z,27.8
2024-02-20T04:03:42.851Z,27.5
2024-02-20T04:08:45.302Z,27.4
2024-02-20T04:13:47.770Z,27.5
2024-02-20T04:18:50.388Z,27.7
2024-02-20T04:23:52.857Z,28
2024-02-20T04:28:55.268Z,28.3
2024-02-20T04:37:58.705Z,28.3
2024-02-20T04:43:01.181Z,28.2
2024-02-20T04:48:03.669Z,28.2
2024-02-20T04:53:06.117Z,28.2
2024-02-20T04:58:08.598Z,28.2
2024-02-20T05:03:11.099Z,28.1
2024-02-20T05:08:13.553Z,28.1
2024-02-20T05:13:16.085Z,28
2024-02-20T05:18:18.631Z,27.9
2024-02-20T05:23:21.054Z,27.8
2024-02-20T05:28:23.588Z,27.7
2024-02-20T05:33:26.220Z,27.6
2024-02-20T05:38:28.682Z,27.8
2024-02-20T05:43:31.156Z,28.1
2024-02-20T05:48:33.754Z,28.4
2024-02-20T05:53:36.321Z,28.7
2024-02-20T05:58:38.912Z,28.8
2024-02-20T06:03:41.407Z,28.9
2024-02-20T06:08:43.816Z,28.9
2024-02-20T06:13:46.318Z,28.7
2024-02-20T06:18:48.935Z,28.5
2024-02-20T06:23:51.394Z,28.4
2024-02-20T06:28:53.948Z,28.2
2024-02-20T06:33:56.602Z,28.1
2024-02-20T06:38:59.105Z,28
2024-02-20T06:44:01.531Z,27.9
2024-02-20T06:49:04.034Z,27.7
2024-02-20T06:57:06.664Z,27.7
2024-02-20T07:02:09.156Z,27.5
2024-02-20T07:07:11.691Z,27.4
2024-02-20T07:12:14.161Z,27.3
2024-02-20T07:17:16.592Z,27.2
2024-02-20T07:22:19.047Z,27.2
2024-02-20T07:27:21.494Z,27.6
2024-02-20T07:32:23.933Z,28
2024-02-20T07:37:26.394Z,28.1
2024-02-20T07:42:28.807Z,28.2
2024-02-20T07:47:31.254Z,28.2
2024-02-20T07:52:34.325Z,28.2
2024-02-20T07:57:36.955Z,28.1
2024-02-20T08:02:39.429Z,28
2024-02-20T08:07:41.960Z,27.9
2024-02-20T08:12:44.439Z,27.8
2024-02-20T08:17:46.916Z,27.6
2024-02-20T08:22:49.390Z,27.5
2024-02-20T08:27:51.889Z,27.4
2024-02-20T08:32:54.363Z,27.5
2024-02-20T08:37:56.811Z,27.7
2024-02-20T08:42:59.276Z,28.1
2024-02-20T08:48:01.826Z,28.3
2024-02-20T08:53:04.310Z,28.3
2024-02-20T09:14:25.834Z,28.3
2024-02-20T09:44:40.219Z,27.7
2024-02-20T10:09:52.303Z,28
2024-02-20T10:24:59.540Z,28
2024-02-20T10:55:22.323Z,27.7
2024-02-20T11:05:37.170Z,27.8
2024-02-20T11:14:37.070Z,28
2024-02-20T11:19:39.562Z,28.6
2024-02-20T11:24:42.098Z,28.8
2024-02-20T11:29:44.526Z,28.8
2024-02-20T11:34:46.959Z,28.7
2024-02-20T11:39:49.439Z,28.6
2024-02-20T11:44:51.907Z,28.5
2024-02-20T11:49:54.332Z,28.4
2024-02-20T11:54:56.776Z,28.3
2024-02-20T11:59:59.202Z,28.1
2024-02-20T12:05:01.681Z,27.9
2024-02-20T12:10:04.777Z,27.8
2024-02-20T12:15:07.668Z,27.7
2024-02-20T12:20:10.225Z,27.7
2024-02-20T12:25:12.814Z,27.5
2024-02-20T12:30:15.330Z,27.4
2024-02-20T12:35:17.758Z,27.4
2024-02-20T12:40:20.480Z,27.7
2024-02-20T12:45:22.964Z,27.9
2024-02-20T12:50:25.368Z,28
2024-02-20T12:55:27.828Z,28.1
2024-02-20T13:00:30.313Z,28.1
2024-02-20T13:05:32.842Z,28.1
2024-02-20T13:10:35.350Z,28.1
2024-02-20T13:15:37.888Z,28.2
2024-02-20T13:20:40.309Z,28.3
2024-02-20T13:25:42.856Z,28.2
2024-02-20T13:34:13.611Z,28.1
2024-02-20T13:39:16.235Z,27.9
2024-02-20T13:44:18.682Z,27.9
2024-02-20T13:49:21.145Z,27.8
2024-02-20T13:54:23.737Z,27.6
2024-02-20T13:59:26.228Z,27.6
2024-02-20T14:04:28.825Z,27.6
2024-02-20T14:09:31.284Z,27.9
2024-02-20T14:14:33.790Z,28
2024-02-20T14:19:36.385Z,28.1
2024-02-20T14:24:39.105Z,28
2024-02-20T14:29:41.537Z,28
2024-02-20T14:34:44.093Z,28
2024-02-20T14:39:46.568Z,28
2024-02-20T14:44:49.002Z,28.1
2024-02-20T14:49:51.466Z,28.1
2024-02-20T14:54:53.955Z,28.2
2024-02-20T14:59:56.403Z,28.2
2024-02-20T15:04:58.912Z,28.2
2024-02-20T15:10:01.446Z,28.1
2024-02-20T15:15:03.884Z,28
2024-02-20T15:20:06.346Z,27.9
2024-02-20T15:25:09.050Z,27.7
2024-02-20T15:30:11.529Z,27.7
2024-02-20T15:35:14.145Z,27.6
2024-02-20T15:40:16.804Z,27.5
2024-02-20T15:45:19.341Z,27.7
2024-02-20T15:53:21.517Z,28
2024-02-20T15:58:24.540Z,28.5
2024-02-20T16:03:27.268Z,28.8
2024-02-20T16:08:29.710Z,28.8
2024-02-20T16:13:32.140Z,28.8
2024-02-20T16:18:34.857Z,28.7
2024-02-20T16:23:37.360Z,28.4
2024-02-20T16:28:39.792Z,28.3
2024-02-20T16:33:42.307Z,28.1
2024-02-20T16:38:44.931Z,28.1
2024-02-20T16:43:47.779Z,27.9
2024-02-20T16:48:50.419Z,27.9
2024-02-20T16:53:52.937Z,27.8
2024-02-20T16:58:55.378Z,27.7
2024-02-20T17:03:57.850Z,27.7
2024-02-20T17:09:00.318Z,27.6
2024-02-20T17:14:02.816Z,27.5
2024-02-20T17:19:05.326Z,27.3
2024-02-20T17:24:07.979Z,27.1
2024-02-20T17:29:10.514Z,27.3
2024-02-20T17:34:13.090Z,27.8
2024-02-20T17:39:15.831Z,28.3
2024-02-20T17:44:18.245Z,28.6
2024-02-20T17:49:20.739Z,28.7
2024-02-20T17:54:23.333Z,29
2024-02-20T17:59:25.763Z,29.1
2024-02-20T18:04:28.209Z,29.2
2024-02-20T18:09:30.668Z,29.3
2024-02-20T18:14:33.069Z,29.2
2024-02-20T18:19:35.624Z,29.1
2024-02-20T18:24:38.077Z,28.8
2024-02-20T18:29:40.532Z,28.6
2024-02-20T18:34:43.033Z,28.3
2024-02-20T18:39:45.517Z,28.2
2024-02-20T18:44:48.235Z,28.1
2024-02-20T18:49:50.737Z,28.1
2024-02-20T18:54:53.226Z,28
2024-02-20T18:59:55.649Z,27.9
2024-02-20T19:04:58.107Z,27.6
2024-02-20T19:10:00.639Z,27.6
2024-02-20T19:15:03.051Z,27.5
2024-02-20T19:20:05.527Z,27.4
2024-02-20T19:25:08.188Z,27.4
2024-02-20T19:30:10.583Z,27.3
2024-02-20T19:35:13.076Z,27.2
2024-02-20T19:40:15.612Z,27.1
2024-02-20T19:45:18.022Z,27.1
2024-02-20T19:50:20.499Z,27
2024-02-20T19:55:23.109Z,27
2024-02-20T20:00:25.559Z,27
2024-02-20T20:05:28.071Z,26.9
2024-02-20T20:10:30.621Z,26.8
2024-02-20T20:15:35.619Z,26.8
2024-02-20T20:20:39.969Z,26.7
2024-02-20T20:25:42.418Z,26.7
2024-02-20T21:15:08.788Z,28.4
2024-02-20T22:40:49.587Z,26.5
